sensor_id;sensor_type;location;lat;lon;timestamp;P1;durP1;ratioP1;P2;durP2;ratioP2
17959;SDS011;9105;53.552;9.980;2023-10-13T00:01:55;10.88;;;3.10;;
17959;SDS011;9105;53.552;9.980;2023-10-13T00:04:24;9.77;;;3.25;;
17959;SDS011;9105;53.552;9.980;2023-10-13T00:09:19;9.85;;;3.30;;
17959;SDS011;9105;53.552;9.980;2023-10-13T00:11:49;15.43;;;3.72;;
17959;SDS011;9105;53.552;9.980;2023-10-13T00:14:15;8.20;;;3.50;;
17959;SDS011;9105;53.552;9.980;2023-10-13T00:16:43;10.70;;;2.92;;
17959;SDS011;9105;53.552;9.980;2023-10-13T00:19:28;8.98;;;3.70;;
17959;SDS011;9105;53.552;9.980;2023-10-13T00:22:24;13.13;;;3.92;;
17959;SDS011;9105;53.552;9.980;2023-10-13T00:24:49;11.05;;;3.80;;
17959;SDS011;9105;53.552;9.980;2023-10-13T00:27:20;12.10;;;3.88;;
17959;SDS011;9105;53.552;9.980;2023-10-13T00:29:56;11.60;;;4.32;;
17959;SDS011;9105;53.552;9.980;2023-10-13T00:32:45;13.98;;;4.32;;
17959;SDS011;9105;53.552;9.980;2023-10-13T00:35:16;15.88;;;5.03;;
17959;SDS011;9105;53.552;9.980;2023-10-13T00:37:53;13.95;;;4.95;;
17959;SDS011;9105;53.552;9.980;2023-10-13T00:40:20;11.73;;;4.28;;
17959;SDS011;9105;53.552;9.980;2023-10-13T00:42:55;15.55;;;5.10;;
17959;SDS011;9105;53.552;9.980;2023-10-13T00:45:30;17.38;;;5.45;;
17959;SDS011;9105;53.552;9.980;2023-10-13T00:47:59;9.40;;;3.58;;
17959;SDS011;9105;53.552;9.980;2023-10-13T00:50:26;13.82;;;5.38;;
17959;SDS011;9105;53.552;9.980;2023-10-13T00:52:52;14.90;;;5.53;;
17959;SDS011;9105;53.552;9.980;2023-10-13T00:55:19;16.73;;;5.65;;
17959;SDS011;9105;53.552;9.980;2023-10-13T00:57:50;17.83;;;6.55;;
17959;SDS011;9105;53.552;9.980;2023-10-13T01:00:18;19.00;;;5.65;;
17959;SDS011;9105;53.552;9.980;2023-10-13T01:02:45;14.20;;;5.85;;
17959;SDS011;9105;53.552;9.980;2023-10-13T01:05:19;17.67;;;6.57;;
17959;SDS011;9105;53.552;9.980;2023-10-13T01:07:46;18.15;;;6.35;;
17959;SDS011;9105;53.552;9.980;2023-10-13T01:10:17;17.13;;;6.60;;
17959;SDS011;9105;53.552;9.980;2023-10-13T01:12:44;16.13;;;5.47;;
17959;SDS011;9105;53.552;9.980;2023-10-13T01:15:11;22.30;;;6.85;;
17959;SDS011;9105;53.552;9.980;2023-10-13T01:17:38;22.70;;;6.30;;
17959;SDS011;9105;53.552;9.980;2023-10-13T01:20:04;20.05;;;7.00;;
17959;SDS011;9105;53.552;9.980;2023-10-13T01:22:31;23.40;;;7.95;;
17959;SDS011;9105;53.552;9.980;2023-10-13T01:24:57;22.05;;;7.43;;
17959;SDS011;9105;53.552;9.980;2023-10-13T01:27:31;22.10;;;8.10;;
17959;SDS011;9105;53.552;9.980;2023-10-13T01:29:56;21.75;;;7.80;;
17959;SDS011;9105;53.552;9.980;2023-10-13T01:32:31;23.15;;;8.25;;
17959;SDS011;9105;53.552;9.980;2023-10-13T01:34:56;21.27;;;7.78;;
17959;SDS011;9105;53.552;9.980;2023-10-13T01:37:29;20.15;;;7.72;;
17959;SDS011;9105;53.552;9.980;2023-10-13T01:39:55;23.08;;;8.55;;
17959;SDS011;9105;53.552;9.980;2023-10-13T01:42:20;24.15;;;8.60;;
17959;SDS011;9105;53.552;9.980;2023-10-13T01:44:47;31.17;;;9.10;;
17959;SDS011;9105;53.552;9.980;2023-10-13T01:47:13;19.10;;;8.65;;
17959;SDS011;9105;53.552;9.980;2023-10-13T01:49:38;24.73;;;8.35;;
17959;SDS011;9105;53.552;9.980;2023-10-13T01:52:10;25.15;;;10.60;;
17959;SDS011;9105;53.552;9.980;2023-10-13T01:54:41;24.02;;;9.13;;
17959;SDS011;9105;53.552;9.980;2023-10-13T01:57:13;26.60;;;9.43;;
17959;SDS011;9105;53.552;9.980;2023-10-13T01:59:44;26.70;;;10.20;;
17959;SDS011;9105;53.552;9.980;2023-10-13T02:02:16;28.77;;;9.75;;
17959;SDS011;9105;53.552;9.980;2023-10-13T02:04:54;27.52;;;10.55;;
17959;SDS011;9105;53.552;9.980;2023-10-13T02:07:25;33.03;;;11.23;;
17959;SDS011;9105;53.552;9.980;2023-10-13T02:09:59;24.75;;;9.57;;
17959;SDS011;9105;53.552;9.980;2023-10-13T02:12:33;32.17;;;10.55;;
17959;SDS011;9105;53.552;9.980;2023-10-13T02:15:09;29.38;;;10.95;;
17959;SDS011;9105;53.552;9.980;2023-10-13T02:20:16;33.65;;;11.00;;
17959;SDS011;9105;53.552;9.980;2023-10-13T02:22:43;35.72;;;12.10;;
17959;SDS011;9105;53.552;9.980;2023-10-13T02:25:17;32.65;;;11.15;;
17959;SDS011;9105;53.552;9.980;2023-10-13T02:28:00;34.33;;;11.85;;
17959;SDS011;9105;53.552;9.980;2023-10-13T02:30:26;36.90;;;13.63;;
17959;SDS011;9105;53.552;9.980;2023-10-13T02:32:52;31.92;;;11.48;;
17959;SDS011;9105;53.552;9.980;2023-10-13T02:35:18;36.35;;;13.45;;
17959;SDS011;9105;53.552;9.980;2023-10-13T02:37:54;32.40;;;11.45;;
17959;SDS011;9105;53.552;9.980;2023-10-13T02:40:21;34.03;;;13.07;;
17959;SDS011;9105;53.552;9.980;2023-10-13T02:42:48;47.25;;;14.80;;
17959;SDS011;9105;53.552;9.980;2023-10-13T02:45:14;44.67;;;14.43;;
17959;SDS011;9105;53.552;9.980;2023-10-13T02:47:40;35.08;;;13.82;;
17959;SDS011;9105;53.552;9.980;2023-10-13T02:50:09;33.72;;;12.27;;
17959;SDS011;9105;53.552;9.980;2023-10-13T02:52:37;43.65;;;14.25;;
17959;SDS011;9105;53.552;9.980;2023-10-13T02:55:06;42.10;;;14.40;;
17959;SDS011;9105;53.552;9.980;2023-10-13T02:57:35;33.58;;;13.85;;
17959;SDS011;9105;53.552;9.980;2023-10-13T03:00:01;36.67;;;13.75;;
17959;SDS011;9105;53.552;9.980;2023-10-13T03:02:41;39.92;;;14.10;;
17959;SDS011;9105;53.552;9.980;2023-10-13T03:05:23;43.30;;;15.13;;
17959;SDS011;9105;53.552;9.980;2023-10-13T03:07:48;39.75;;;14.45;;
17959;SDS011;9105;53.552;9.980;2023-10-13T03:10:15;49.72;;;15.45;;
17959;SDS011;9105;53.552;9.980;2023-10-13T03:12:44;39.22;;;14.82;;
17959;SDS011;9105;53.552;9.980;2023-10-13T03:15:13;41.35;;;15.38;;
17959;SDS011;9105;53.552;9.980;2023-10-13T03:17:42;41.78;;;16.13;;
17959;SDS011;9105;53.552;9.980;2023-10-13T03:20:14;39.65;;;14.85;;
17959;SDS011;9105;53.552;9.980;2023-10-13T03:22:47;46.30;;;16.17;;
17959;SDS011;9105;53.552;9.980;2023-10-13T03:25:16;48.70;;;16.05;;
17959;SDS011;9105;53.552;9.980;2023-10-13T03:27:58;40.93;;;16.13;;
17959;SDS011;9105;53.552;9.980;2023-10-13T03:30:24;42.17;;;15.50;;
17959;SDS011;9105;53.552;9.980;2023-10-13T03:32:55;42.35;;;15.52;;
17959;SDS011;9105;53.552;9.980;2023-10-13T03:35:21;44.25;;;16.30;;
17959;SDS011;9105;53.552;9.980;2023-10-13T03:37:50;42.95;;;17.00;;
17959;SDS011;9105;53.552;9.980;2023-10-13T03:40:16;42.85;;;16.10;;
17959;SDS011;9105;53.552;9.980;2023-10-13T03:42:44;46.00;;;16.38;;
17959;SDS011;9105;53.552;9.980;2023-10-13T03:48:26;33.05;;;13.20;;
17959;SDS011;9105;53.552;9.980;2023-10-13T03:51:01;31.77;;;12.70;;
17959;SDS011;9105;53.552;9.980;2023-10-13T03:53:40;31.90;;;12.87;;
17959;SDS011;9105;53.552;9.980;2023-10-13T03:56:18;28.10;;;11.65;;
17959;SDS011;9105;53.552;9.980;2023-10-13T03:59:11;28.17;;;11.43;;
17959;SDS011;9105;53.552;9.980;2023-10-13T04:01:40;21.52;;;10.05;;
17959;SDS011;9105;53.552;9.980;2023-10-13T04:04:08;27.65;;;10.65;;
17959;SDS011;9105;53.552;9.980;2023-10-13T04:06:36;23.77;;;10.25;;
17959;SDS011;9105;53.552;9.980;2023-10-13T04:09:17;19.40;;;9.68;;
17959;SDS011;9105;53.552;9.980;2023-10-13T04:12:03;18.80;;;9.27;;
17959;SDS011;9105;53.552;9.980;2023-10-13T04:14:29;22.73;;;10.20;;
17959;SDS011;9105;53.552;9.980;2023-10-13T04:17:17;26.67;;;11.00;;
17959;SDS011;9105;53.552;9.980;2023-10-13T04:19:48;33.85;;;12.35;;
17959;SDS011;9105;53.552;9.980;2023-10-13T04:25:13;33.70;;;13.98;;
17959;SDS011;9105;53.552;9.980;2023-10-13T04:27:58;32.28;;;13.50;;
17959;SDS011;9105;53.552;9.980;2023-10-13T04:33:23;33.95;;;14.90;;
17959;SDS011;9105;53.552;9.980;2023-10-13T04:36:15;28.75;;;15.00;;
17959;SDS011;9105;53.552;9.980;2023-10-13T04:38:57;31.10;;;15.10;;
17959;SDS011;9105;53.552;9.980;2023-10-13T04:41:33;39.10;;;16.85;;
17959;SDS011;9105;53.552;9.980;2023-10-13T04:44:06;39.63;;;17.45;;
17959;SDS011;9105;53.552;9.980;2023-10-13T04:46:51;44.42;;;17.65;;
17959;SDS011;9105;53.552;9.980;2023-10-13T04:49:20;45.65;;;18.90;;
17959;SDS011;9105;53.552;9.980;2023-10-13T04:52:16;48.42;;;19.30;;
17959;SDS011;9105;53.552;9.980;2023-10-13T04:55:13;45.90;;;20.13;;
17959;SDS011;9105;53.552;9.980;2023-10-13T04:57:57;56.92;;;20.70;;
17959;SDS011;9105;53.552;9.980;2023-10-13T05:00:36;43.88;;;19.45;;
17959;SDS011;9105;53.552;9.980;2023-10-13T05:03:37;49.15;;;20.10;;
17959;SDS011;9105;53.552;9.980;2023-10-13T05:06:21;54.60;;;21.33;;
17959;SDS011;9105;53.552;9.980;2023-10-13T05:09:04;42.40;;;19.55;;
17959;SDS011;9105;53.552;9.980;2023-10-13T05:11:48;46.97;;;20.15;;
17959;SDS011;9105;53.552;9.980;2023-10-13T05:14:33;43.00;;;19.77;;
17959;SDS011;9105;53.552;9.980;2023-10-13T05:17:17;46.03;;;20.40;;
17959;SDS011;9105;53.552;9.980;2023-10-13T05:20:01;49.08;;;21.40;;
17959;SDS011;9105;53.552;9.980;2023-10-13T05:22:45;53.22;;;21.48;;
17959;SDS011;9105;53.552;9.980;2023-10-13T05:25:29;50.90;;;22.27;;
17959;SDS011;9105;53.552;9.980;2023-10-13T05:28:13;49.92;;;21.00;;
17959;SDS011;9105;53.552;9.980;2023-10-13T05:31:00;50.72;;;22.52;;
17959;SDS011;9105;53.552;9.980;2023-10-13T05:33:44;51.78;;;22.05;;
17959;SDS011;9105;53.552;9.980;2023-10-13T05:36:28;51.80;;;23.38;;
17959;SDS011;9105;53.552;9.980;2023-10-13T05:39:12;42.42;;;21.67;;
17959;SDS011;9105;53.552;9.980;2023-10-13T05:41:56;48.20;;;23.15;;
17959;SDS011;9105;53.552;9.980;2023-10-13T05:44:41;54.10;;;24.77;;
17959;SDS011;9105;53.552;9.980;2023-10-13T05:47:32;51.38;;;23.88;;
17959;SDS011;9105;53.552;9.980;2023-10-13T05:50:08;51.33;;;23.55;;
17959;SDS011;9105;53.552;9.980;2023-10-13T05:52:46;56.30;;;25.45;;
17959;SDS011;9105;53.552;9.980;2023-10-13T05:55:22;57.55;;;25.40;;
17959;SDS011;9105;53.552;9.980;2023-10-13T05:58:06;60.13;;;26.08;;
17959;SDS011;9105;53.552;9.980;2023-10-13T06:00:51;58.78;;;25.98;;
17959;SDS011;9105;53.552;9.980;2023-10-13T06:03:37;54.20;;;25.05;;
17959;SDS011;9105;53.552;9.980;2023-10-13T06:06:20;61.67;;;26.30;;
17959;SDS011;9105;53.552;9.980;2023-10-13T06:09:04;59.65;;;26.77;;
17959;SDS011;9105;53.552;9.980;2023-10-13T06:11:49;66.60;;;28.98;;
17959;SDS011;9105;53.552;9.980;2023-10-13T06:14:33;69.40;;;28.50;;
17959;SDS011;9105;53.552;9.980;2023-10-13T06:17:17;83.68;;;31.58;;
17959;SDS011;9105;53.552;9.980;2023-10-13T06:20:01;68.70;;;28.33;;
17959;SDS011;9105;53.552;9.980;2023-10-13T06:22:48;64.57;;;30.08;;
17959;SDS011;9105;53.552;9.980;2023-10-13T06:25:32;51.92;;;27.90;;
17959;SDS011;9105;53.552;9.980;2023-10-13T06:28:16;76.72;;;33.97;;
17959;SDS011;9105;53.552;9.980;2023-10-13T06:31:01;58.53;;;30.27;;
17959;SDS011;9105;53.552;9.980;2023-10-13T06:33:31;72.18;;;33.22;;
17959;SDS011;9105;53.552;9.980;2023-10-13T06:36:02;67.78;;;33.58;;
17959;SDS011;9105;53.552;9.980;2023-10-13T06:38:29;69.70;;;33.05;;
17959;SDS011;9105;53.552;9.980;2023-10-13T06:41:04;62.97;;;32.30;;
17959;SDS011;9105;53.552;9.980;2023-10-13T06:43:39;55.15;;;29.15;;
17959;SDS011;9105;53.552;9.980;2023-10-13T06:46:08;57.35;;;31.90;;
17959;SDS011;9105;53.552;9.980;2023-10-13T06:48:39;53.55;;;31.95;;
17959;SDS011;9105;53.552;9.980;2023-10-13T06:51:06;72.75;;;34.83;;
17959;SDS011;9105;53.552;9.980;2023-10-13T06:53:46;66.57;;;34.33;;
17959;SDS011;9105;53.552;9.980;2023-10-13T06:56:16;69.43;;;34.38;;
17959;SDS011;9105;53.552;9.980;2023-10-13T06:58:52;46.55;;;28.77;;
17959;SDS011;9105;53.552;9.980;2023-10-13T07:01:25;53.75;;;30.48;;
17959;SDS011;9105;53.552;9.980;2023-10-13T07:03:51;47.30;;;29.27;;
17959;SDS011;9105;53.552;9.980;2023-10-13T07:06:20;56.13;;;32.33;;
17959;SDS011;9105;53.552;9.980;2023-10-13T07:08:46;33.13;;;23.35;;
17959;SDS011;9105;53.552;9.980;2023-10-13T07:11:26;33.30;;;24.45;;
17959;SDS011;9105;53.552;9.980;2023-10-13T07:13:59;36.70;;;25.98;;
17959;SDS011;9105;53.552;9.980;2023-10-13T07:16:56;38.65;;;27.15;;
17959;SDS011;9105;53.552;9.980;2023-10-13T07:19:26;39.33;;;26.73;;
17959;SDS011;9105;53.552;9.980;2023-10-13T07:21:56;43.40;;;28.63;;
17959;SDS011;9105;53.552;9.980;2023-10-13T07:24:29;39.85;;;28.50;;
17959;SDS011;9105;53.552;9.980;2023-10-13T07:26:57;38.60;;;26.80;;
17959;SDS011;9105;53.552;9.980;2023-10-13T07:29:31;39.78;;;27.55;;
17959;SDS011;9105;53.552;9.980;2023-10-13T07:32:00;44.10;;;30.05;;
17959;SDS011;9105;53.552;9.980;2023-10-13T07:34:38;32.97;;;24.85;;
17959;SDS011;9105;53.552;9.980;2023-10-13T07:37:04;37.28;;;26.65;;
17959;SDS011;9105;53.552;9.980;2023-10-13T07:47:17;33.72;;;25.08;;
17959;SDS011;9105;53.552;9.980;2023-10-13T07:49:45;39.17;;;27.33;;
17959;SDS011;9105;53.552;9.980;2023-10-13T07:52:15;33.53;;;25.67;;
17959;SDS011;9105;53.552;9.980;2023-10-13T07:54:48;28.70;;;22.52;;
17959;SDS011;9105;53.552;9.980;2023-10-13T07:57:14;34.05;;;24.92;;
17959;SDS011;9105;53.552;9.980;2023-10-13T07:59:53;32.05;;;23.77;;
17959;SDS011;9105;53.552;9.980;2023-10-13T08:03:19;27.83;;;21.50;;
17959;SDS011;9105;53.552;9.980;2023-10-13T08:06:00;27.05;;;22.13;;
17959;SDS011;9105;53.552;9.980;2023-10-13T08:08:32;30.90;;;23.23;;
17959;SDS011;9105;53.552;9.980;2023-10-13T08:11:14;31.00;;;21.33;;
17959;SDS011;9105;53.552;9.980;2023-10-13T08:13:49;29.42;;;20.83;;
17959;SDS011;9105;53.552;9.980;2023-10-13T08:16:28;24.58;;;18.92;;
17959;SDS011;9105;53.552;9.980;2023-10-13T08:19:20;24.48;;;19.02;;
17959;SDS011;9105;53.552;9.980;2023-10-13T08:22:01;25.27;;;19.45;;
17959;SDS011;9105;53.552;9.980;2023-10-13T08:24:45;23.58;;;18.23;;
17959;SDS011;9105;53.552;9.980;2023-10-13T08:27:11;22.75;;;17.95;;
17959;SDS011;9105;53.552;9.980;2023-10-13T08:29:49;19.95;;;16.50;;
17959;SDS011;9105;53.552;9.980;2023-10-13T08:32:21;31.17;;;18.45;;
17959;SDS011;9105;53.552;9.980;2023-10-13T08:34:56;22.50;;;15.52;;
17959;SDS011;9105;53.552;9.980;2023-10-13T08:37:23;26.65;;;18.38;;
17959;SDS011;9105;53.552;9.980;2023-10-13T08:43:29;29.95;;;18.02;;
17959;SDS011;9105;53.552;9.980;2023-10-13T08:46:08;34.35;;;19.35;;
17959;SDS011;9105;53.552;9.980;2023-10-13T08:48:34;27.33;;;18.17;;
17959;SDS011;9105;53.552;9.980;2023-10-13T08:56:19;27.10;;;17.42;;
17959;SDS011;9105;53.552;9.980;2023-10-13T08:59:41;22.65;;;16.08;;
17959;SDS011;9105;53.552;9.980;2023-10-13T09:02:18;23.67;;;15.63;;
17959;SDS011;9105;53.552;9.980;2023-10-13T09:04:46;21.40;;;15.07;;
17959;SDS011;9105;53.552;9.980;2023-10-13T09:07:13;19.75;;;14.35;;
17959;SDS011;9105;53.552;9.980;2023-10-13T09:09:48;16.88;;;13.15;;
17959;SDS011;9105;53.552;9.980;2023-10-13T09:12:18;19.67;;;14.43;;
17959;SDS011;9105;53.552;9.980;2023-10-13T09:15:04;18.15;;;13.75;;
17959;SDS011;9105;53.552;9.980;2023-10-13T09:17:45;18.00;;;12.32;;
17959;SDS011;9105;53.552;9.980;2023-10-13T09:20:30;16.67;;;11.95;;
17959;SDS011;9105;53.552;9.980;2023-10-13T09:23:12;14.45;;;11.05;;
17959;SDS011;9105;53.552;9.980;2023-10-13T09:25:49;12.90;;;10.50;;
17959;SDS011;9105;53.552;9.980;2023-10-13T09:28:29;11.85;;;8.63;;
17959;SDS011;9105;53.552;9.980;2023-10-13T09:40:47;9.68;;;6.95;;
17959;SDS011;9105;53.552;9.980;2023-10-13T09:43:16;8.95;;;7.78;;
17959;SDS011;9105;53.552;9.980;2023-10-13T09:45:43;9.43;;;7.00;;
17959;SDS011;9105;53.552;9.980;2023-10-13T09:48:34;9.82;;;6.43;;
17959;SDS011;9105;53.552;9.980;2023-10-13T09:51:02;9.57;;;6.20;;
17959;SDS011;9105;53.552;9.980;2023-10-13T09:53:32;10.00;;;6.72;;
17959;SDS011;9105;53.552;9.980;2023-10-13T09:56:01;12.07;;;6.90;;
17959;SDS011;9105;53.552;9.980;2023-10-13T09:58:55;11.18;;;7.18;;
17959;SDS011;9105;53.552;9.980;2023-10-13T10:05:09;10.77;;;7.07;;
17959;SDS011;9105;53.552;9.980;2023-10-13T10:07:56;12.05;;;6.47;;
17959;SDS011;9105;53.552;9.980;2023-10-13T10:13:25;12.70;;;6.57;;
17959;SDS011;9105;53.552;9.980;2023-10-13T10:16:19;11.65;;;6.95;;
17959;SDS011;9105;53.552;9.980;2023-10-13T10:18:59;14.07;;;6.60;;
17959;SDS011;9105;53.552;9.980;2023-10-13T10:21:34;9.93;;;7.00;;
17959;SDS011;9105;53.552;9.980;2023-10-13T10:24:00;10.95;;;6.40;;
17959;SDS011;9105;53.552;9.980;2023-10-13T10:26:38;11.90;;;6.82;;
17959;SDS011;9105;53.552;9.980;2023-10-13T10:29:10;15.25;;;6.93;;
17959;SDS011;9105;53.552;9.980;2023-10-13T10:31:39;12.98;;;6.60;;
17959;SDS011;9105;53.552;9.980;2023-10-13T10:34:13;9.27;;;6.53;;
17959;SDS011;9105;53.552;9.980;2023-10-13T10:36:39;11.27;;;6.25;;
17959;SDS011;9105;53.552;9.980;2023-10-13T10:39:08;10.18;;;6.55;;
17959;SDS011;9105;53.552;9.980;2023-10-13T10:41:34;13.35;;;6.43;;
17959;SDS011;9105;53.552;9.980;2023-10-13T10:44:12;15.30;;;7.65;;
17959;SDS011;9105;53.552;9.980;2023-10-13T10:46:41;10.57;;;5.82;;
17959;SDS011;9105;53.552;9.980;2023-10-13T10:54:19;10.93;;;6.00;;
17959;SDS011;9105;53.552;9.980;2023-10-13T10:56:46;9.63;;;5.75;;
17959;SDS011;9105;53.552;9.980;2023-10-13T10:59:17;9.88;;;5.80;;
17959;SDS011;9105;53.552;9.980;2023-10-13T11:01:45;12.23;;;6.32;;
17959;SDS011;9105;53.552;9.980;2023-10-13T11:04:16;8.63;;;5.95;;
17959;SDS011;9105;53.552;9.980;2023-10-13T11:06:49;11.95;;;6.30;;
17959;SDS011;9105;53.552;9.980;2023-10-13T11:09:28;10.95;;;5.93;;
17959;SDS011;9105;53.552;9.980;2023-10-13T11:11:57;9.63;;;6.40;;
17959;SDS011;9105;53.552;9.980;2023-10-13T11:15:06;12.02;;;5.82;;
17959;SDS011;9105;53.552;9.980;2023-10-13T11:20:17;11.35;;;6.75;;
17959;SDS011;9105;53.552;9.980;2023-10-13T11:22:50;9.98;;;6.35;;
17959;SDS011;9105;53.552;9.980;2023-10-13T11:25:21;8.45;;;5.60;;
17959;SDS011;9105;53.552;9.980;2023-10-13T11:28:09;11.50;;;6.82;;
17959;SDS011;9105;53.552;9.980;2023-10-13T11:30:42;14.27;;;6.63;;
17959;SDS011;9105;53.552;9.980;2023-10-13T11:33:10;10.88;;;5.72;;
17959;SDS011;9105;53.552;9.980;2023-10-13T11:35:39;11.27;;;5.88;;
17959;SDS011;9105;53.552;9.980;2023-10-13T11:40:55;11.55;;;5.70;;
17959;SDS011;9105;53.552;9.980;2023-10-13T11:43:31;9.23;;;5.50;;
17959;SDS011;9105;53.552;9.980;2023-10-13T11:46:13;8.65;;;5.45;;
17959;SDS011;9105;53.552;9.980;2023-10-13T11:48:43;8.57;;;5.50;;
17959;SDS011;9105;53.552;9.980;2023-10-13T11:51:11;12.50;;;5.43;;
17959;SDS011;9105;53.552;9.980;2023-10-13T11:56:17;10.93;;;5.68;;
17959;SDS011;9105;53.552;9.980;2023-10-13T12:01:11;9.05;;;5.25;;
17959;SDS011;9105;53.552;9.980;2023-10-13T12:03:43;13.23;;;5.40;;
17959;SDS011;9105;53.552;9.980;2023-10-13T12:06:28;8.95;;;5.28;;
17959;SDS011;9105;53.552;9.980;2023-10-13T12:09:00;10.88;;;4.78;;
17959;SDS011;9105;53.552;9.980;2023-10-13T12:11:45;10.65;;;5.07;;
17959;SDS011;9105;53.552;9.980;2023-10-13T12:14:14;12.40;;;4.88;;
17959;SDS011;9105;53.552;9.980;2023-10-13T12:16:46;11.15;;;5.00;;
17959;SDS011;9105;53.552;9.980;2023-10-13T12:19:24;13.48;;;4.90;;
17959;SDS011;9105;53.552;9.980;2023-10-13T12:21:52;13.23;;;4.75;;
17959;SDS011;9105;53.552;9.980;2023-10-13T12:24:24;10.75;;;5.25;;
17959;SDS011;9105;53.552;9.980;2023-10-13T12:27:01;18.00;;;5.57;;
17959;SDS011;9105;53.552;9.980;2023-10-13T12:29:44;8.27;;;4.65;;
17959;SDS011;9105;53.552;9.980;2023-10-13T12:32:11;14.18;;;5.47;;
17959;SDS011;9105;53.552;9.980;2023-10-13T12:34:38;13.82;;;4.93;;
17959;SDS011;9105;53.552;9.980;2023-10-13T12:37:23;11.98;;;4.70;;
17959;SDS011;9105;53.552;9.980;2023-10-13T12:40:09;15.35;;;5.50;;
17959;SDS011;9105;53.552;9.980;2023-10-13T12:42:57;9.88;;;4.82;;
17959;SDS011;9105;53.552;9.980;2023-10-13T12:45:41;10.65;;;4.93;;
17959;SDS011;9105;53.552;9.980;2023-10-13T12:48:27;11.60;;;4.88;;
17959;SDS011;9105;53.552;9.980;2023-10-13T12:53:51;13.95;;;5.05;;
17959;SDS011;9105;53.552;9.980;2023-10-13T12:56:17;13.55;;;4.88;;
17959;SDS011;9105;53.552;9.980;2023-10-13T12:58:51;14.13;;;5.35;;
17959;SDS011;9105;53.552;9.980;2023-10-13T13:01:20;10.10;;;4.75;;
17959;SDS011;9105;53.552;9.980;2023-10-13T13:03:50;11.45;;;4.85;;
17959;SDS011;9105;53.552;9.980;2023-10-13T13:06:28;16.08;;;4.97;;
17959;SDS011;9105;53.552;9.980;2023-10-13T13:08:58;10.90;;;4.70;;
17959;SDS011;9105;53.552;9.980;2023-10-13T13:11:25;12.23;;;4.80;;
17959;SDS011;9105;53.552;9.980;2023-10-13T13:13:51;12.05;;;5.40;;
17959;SDS011;9105;53.552;9.980;2023-10-13T13:16:17;13.32;;;5.13;;
17959;SDS011;9105;53.552;9.980;2023-10-13T13:18:52;12.93;;;4.88;;
17959;SDS011;9105;53.552;9.980;2023-10-13T13:21:20;8.73;;;4.80;;
17959;SDS011;9105;53.552;9.980;2023-10-13T13:23:50;15.48;;;5.68;;
17959;SDS011;9105;53.552;9.980;2023-10-13T13:26:16;14.23;;;4.82;;
17959;SDS011;9105;53.552;9.980;2023-10-13T13:28:45;9.75;;;5.28;;
17959;SDS011;9105;53.552;9.980;2023-10-13T13:31:17;14.80;;;5.18;;
17959;SDS011;9105;53.552;9.980;2023-10-13T13:33:43;13.10;;;5.22;;
17959;SDS011;9105;53.552;9.980;2023-10-13T13:36:09;10.80;;;5.32;;
17959;SDS011;9105;53.552;9.980;2023-10-13T13:38:41;13.05;;;5.28;;
17959;SDS011;9105;53.552;9.980;2023-10-13T13:41:13;10.50;;;4.95;;
17959;SDS011;9105;53.552;9.980;2023-10-13T13:43:45;14.20;;;5.78;;
17959;SDS011;9105;53.552;9.980;2023-10-13T13:46:21;13.55;;;5.43;;
17959;SDS011;9105;53.552;9.980;2023-10-13T13:48:53;10.73;;;4.72;;
17959;SDS011;9105;53.552;9.980;2023-10-13T13:51:31;14.75;;;5.25;;
17959;SDS011;9105;53.552;9.980;2023-10-13T13:53:59;12.95;;;5.43;;
17959;SDS011;9105;53.552;9.980;2023-10-13T13:56:27;15.10;;;5.03;;
17959;SDS011;9105;53.552;9.980;2023-10-13T14:01:20;13.68;;;5.15;;
17959;SDS011;9105;53.552;9.980;2023-10-13T14:03:50;12.13;;;5.18;;
17959;SDS011;9105;53.552;9.980;2023-10-13T14:06:19;12.88;;;5.28;;
17959;SDS011;9105;53.552;9.980;2023-10-13T14:08:50;16.85;;;5.43;;
17959;SDS011;9105;53.552;9.980;2023-10-13T14:11:20;14.57;;;6.07;;
17959;SDS011;9105;53.552;9.980;2023-10-13T14:14:04;21.30;;;6.45;;
17959;SDS011;9105;53.552;9.980;2023-10-13T14:16:42;16.17;;;5.55;;
17959;SDS011;9105;53.552;9.980;2023-10-13T14:19:13;11.07;;;5.00;;
17959;SDS011;9105;53.552;9.980;2023-10-13T14:21:57;14.55;;;5.63;;
17959;SDS011;9105;53.552;9.980;2023-10-13T14:24:24;15.05;;;5.43;;
17959;SDS011;9105;53.552;9.980;2023-10-13T14:26:54;13.55;;;5.57;;
17959;SDS011;9105;53.552;9.980;2023-10-13T14:29:40;14.07;;;6.00;;
17959;SDS011;9105;53.552;9.980;2023-10-13T14:32:11;16.45;;;5.70;;
17959;SDS011;9105;53.552;9.980;2023-10-13T14:34:39;12.27;;;5.40;;
17959;SDS011;9105;53.552;9.980;2023-10-13T14:37:06;14.07;;;5.82;;
17959;SDS011;9105;53.552;9.980;2023-10-13T14:39:31;13.07;;;6.00;;
17959;SDS011;9105;53.552;9.980;2023-10-13T14:42:00;18.35;;;6.32;;
17959;SDS011;9105;53.552;9.980;2023-10-13T14:44:27;14.32;;;6.18;;
17959;SDS011;9105;53.552;9.980;2023-10-13T14:46:53;19.95;;;6.10;;
17959;SDS011;9105;53.552;9.980;2023-10-13T14:49:23;18.48;;;6.63;;
17959;SDS011;9105;53.552;9.980;2023-10-13T14:54:15;15.85;;;6.50;;
17959;SDS011;9105;53.552;9.980;2023-10-13T14:56:40;17.63;;;6.15;;
17959;SDS011;9105;53.552;9.980;2023-10-13T14:59:09;15.93;;;6.22;;
17959;SDS011;9105;53.552;9.980;2023-10-13T15:01:42;11.73;;;5.90;;
17959;SDS011;9105;53.552;9.980;2023-10-13T15:04:07;12.07;;;5.93;;
17959;SDS011;9105;53.552;9.980;2023-10-13T15:06:33;18.35;;;6.43;;
17959;SDS011;9105;53.552;9.980;2023-10-13T15:08:58;13.27;;;6.15;;
17959;SDS011;9105;53.552;9.980;2023-10-13T15:11:25;18.20;;;6.18;;
17959;SDS011;9105;53.552;9.980;2023-10-13T15:13:55;13.87;;;5.53;;
17959;SDS011;9105;53.552;9.980;2023-10-13T15:16:22;13.63;;;6.13;;
17959;SDS011;9105;53.552;9.980;2023-10-13T15:18:49;15.95;;;6.43;;
17959;SDS011;9105;53.552;9.980;2023-10-13T15:21:24;17.42;;;6.05;;
17959;SDS011;9105;53.552;9.980;2023-10-13T15:23:53;15.13;;;6.05;;
17959;SDS011;9105;53.552;9.980;2023-10-13T15:26:23;17.65;;;6.30;;
17959;SDS011;9105;53.552;9.980;2023-10-13T15:28:49;14.55;;;6.70;;
17959;SDS011;9105;53.552;9.980;2023-10-13T15:31:18;18.42;;;6.32;;
17959;SDS011;9105;53.552;9.980;2023-10-13T15:33:58;16.23;;;6.50;;
17959;SDS011;9105;53.552;9.980;2023-10-13T15:36:26;20.00;;;6.75;;
17959;SDS011;9105;53.552;9.980;2023-10-13T15:38:52;19.23;;;7.03;;
17959;SDS011;9105;53.552;9.980;2023-10-13T15:43:47;16.58;;;6.60;;
17959;SDS011;9105;53.552;9.980;2023-10-13T15:46:15;16.63;;;6.47;;
17959;SDS011;9105;53.552;9.980;2023-10-13T15:48:41;23.00;;;6.88;;
17959;SDS011;9105;53.552;9.980;2023-10-13T15:51:11;20.55;;;6.53;;
17959;SDS011;9105;53.552;9.980;2023-10-13T15:53:41;15.10;;;6.75;;
17959;SDS011;9105;53.552;9.980;2023-10-13T15:56:08;19.98;;;6.78;;
17959;SDS011;9105;53.552;9.980;2023-10-13T16:01:03;16.33;;;6.82;;
17959;SDS011;9105;53.552;9.980;2023-10-13T16:03:37;17.52;;;6.70;;
17959;SDS011;9105;53.552;9.980;2023-10-13T16:06:03;15.65;;;6.97;;
17959;SDS011;9105;53.552;9.980;2023-10-13T16:08:38;14.18;;;6.85;;
17959;SDS011;9105;53.552;9.980;2023-10-13T16:11:10;20.27;;;7.15;;
17959;SDS011;9105;53.552;9.980;2023-10-13T16:13:42;12.43;;;6.47;;
17959;SDS011;9105;53.552;9.980;2023-10-13T16:18:51;15.77;;;6.85;;
17959;SDS011;9105;53.552;9.980;2023-10-13T16:21:18;14.13;;;6.50;;
17959;SDS011;9105;53.552;9.980;2023-10-13T16:23:44;13.55;;;6.53;;
17959;SDS011;9105;53.552;9.980;2023-10-13T16:26:13;20.80;;;6.90;;
17959;SDS011;9105;53.552;9.980;2023-10-13T16:28:38;15.68;;;6.38;;
17959;SDS011;9105;53.552;9.980;2023-10-13T16:31:04;14.38;;;6.00;;
17959;SDS011;9105;53.552;9.980;2023-10-13T16:33:31;13.15;;;5.55;;
17959;SDS011;9105;53.552;9.980;2023-10-13T16:35:58;15.60;;;6.13;;
17959;SDS011;9105;53.552;9.980;2023-10-13T16:38:24;18.15;;;5.72;;
17959;SDS011;9105;53.552;9.980;2023-10-13T16:40:53;15.05;;;5.90;;